createdAt,value
2022-11-06T00:01:12.990Z,84.73
2022-11-06T00:03:40.149Z,84.21
2022-11-06T00:06:43.685Z,85.06
2022-11-06T00:09:12.970Z,84.59
2022-11-06T00:11:40.891Z,83.96
2022-11-06T00:14:07.779Z,84.67
2022-11-06T00:16:34.647Z,83.81
2022-11-06T00:19:02.434Z,83.73
2022-11-06T00:21:30.691Z,82.71
2022-11-06T00:24:00.107Z,83.57
2022-11-06T00:26:28.516Z,85.25
2022-11-06T00:28:56.257Z,84.89
2022-11-06T00:31:37.085Z,84.67
2022-11-06T00:34:07.405Z,85.39
2022-11-06T00:36:34.559Z,84.98
2022-11-06T00:39:01.321Z,85.88
2022-11-06T00:41:28.220Z,86.15
2022-11-06T00:44:02.552Z,85.35
2022-11-06T00:46:29.586Z,85.88
2022-11-06T00:48:56.640Z,85.49
2022-11-06T00:51:28.079Z,85.63
2022-11-06T00:53:56.963Z,85.74
2022-11-06T00:56:23.854Z,86.12
2022-11-06T00:58:50.701Z,86.05
2022-11-06T01:01:24.565Z,85.96
2022-11-06T01:03:59.723Z,87.06
2022-11-06T01:06:30.255Z,86.66
2022-11-06T01:08:57.606Z,86.75
2022-11-06T01:11:28.499Z,86.81
2022-11-06T01:13:59.435Z,86.59
2022-11-06T01:16:26.947Z,86.66
2022-11-06T01:18:55.247Z,86.50
2022-11-06T01:21:23.424Z,85.41
2022-11-06T01:23:55.204Z,86.11
2022-11-06T01:26:37.273Z,85.59
2022-11-06T01:29:06.423Z,84.97
2022-11-06T01:31:34.149Z,85.37
2022-11-06T01:34:02.032Z,85.21
2022-11-06T01:36:29.694Z,84.71
2022-11-06T01:38:59.546Z,84.43
2022-11-06T01:41:43.436Z,83.78
2022-11-06T01:44:40.715Z,85.11
2022-11-06T01:47:24.172Z,84.99
2022-11-06T01:49:56.974Z,84.50
2022-11-06T01:52:25.342Z,84.75
2022-11-06T01:54:57.373Z,84.29
2022-11-06T01:57:24.687Z,84.32
2022-11-06T01:59:52.657Z,83.73
2022-11-06T02:02:19.886Z,84.25
2022-11-06T02:04:48.477Z,84.57
2022-11-06T02:07:16.759Z,83.99
2022-11-06T02:09:43.864Z,84.01
2022-11-06T02:12:32.350Z,84.19
2022-11-06T02:15:26.076Z,83.46
2022-11-06T02:18:32.800Z,83.30
2022-11-06T02:21:17.500Z,82.76
2022-11-06T02:24:05.525Z,83.67
2022-11-06T02:26:44.116Z,83.79
2022-11-06T02:29:19.849Z,83.45
2022-11-06T02:31:49.186Z,82.44
2022-11-06T02:34:19.233Z,83.00
2022-11-06T02:36:53.965Z,82.11
2022-11-06T02:39:24.470Z,82.45
2022-11-06T02:41:54.258Z,82.26
2022-11-06T02:44:25.863Z,82.47
2022-11-06T02:47:03.925Z,81.92
2022-11-06T02:49:52.972Z,82.09
2022-11-06T02:52:29.251Z,82.65
2022-11-06T02:55:03.995Z,81.63
2022-11-06T02:57:36.253Z,82.79
2022-11-06T03:00:09.351Z,82.77
2022-11-06T03:03:00.503Z,84.18
2022-11-06T03:05:33.184Z,83.22
2022-11-06T03:08:12.126Z,82.55
2022-11-06T03:10:59.572Z,81.86
2022-11-06T03:13:44.056Z,81.94
2022-11-06T03:16:42.683Z,82.27
2022-11-06T03:19:21.371Z,82.45
2022-11-06T03:22:12.164Z,82.49
2022-11-06T03:24:55.466Z,82.82
2022-11-06T03:27:40.140Z,82.92
2022-11-06T03:30:15.258Z,82.61
2022-11-06T03:32:50.940Z,83.24
2022-11-06T03:35:33.524Z,82.25
2022-11-06T03:38:19.649Z,82.46
2022-11-06T03:40:52.966Z,82.50
2022-11-06T03:43:24.768Z,83.89
2022-11-06T03:45:53.499Z,83.39
2022-11-06T03:48:30.485Z,83.67
2022-11-06T03:51:04.879Z,84.99
2022-11-06T03:53:53.649Z,83.80
2022-11-06T03:56:34.591Z,83.95
2022-11-06T03:59:03.622Z,85.02
2022-11-06T04:01:36.150Z,84.28
2022-11-06T04:04:07.164Z,83.98
2022-11-06T04:06:41.362Z,83.09
2022-11-06T04:09:29.752Z,82.69
2022-11-06T04:12:18.623Z,83.23
2022-11-06T04:14:48.913Z,82.66
2022-11-06T04:17:17.549Z,83.07
2022-11-06T04:19:50.990Z,82.71
2022-11-06T04:22:36.323Z,83.18
2022-11-06T04:25:30.680Z,82.62
2022-11-06T04:28:17.648Z,81.78
2022-11-06T04:31:07.549Z,81.40
2022-11-06T04:33:58.912Z,81.66
2022-11-06T04:36:39.979Z,81.38
2022-11-06T04:39:11.901Z,83.99
2022-11-06T04:42:02.228Z,82.64
2022-11-06T04:44:37.216Z,82.56
2022-11-06T04:47:07.656Z,82.59
2022-11-06T04:49:37.027Z,83.85
2022-11-06T04:52:07.802Z,83.79
2022-11-06T04:54:35.480Z,82.81
2022-11-06T04:57:02.987Z,82.34
2022-11-06T04:59:33.325Z,82.93
2022-11-06T05:01:59.909Z,82.25
2022-11-06T05:04:26.566Z,81.56
2022-11-06T05:06:53.218Z,81.62
2022-11-06T05:09:19.779Z,81.76
2022-11-06T05:11:46.317Z,83.17
2022-11-06T05:14:12.939Z,83.68
2022-11-06T05:16:39.580Z,84.30
2022-11-06T05:19:06.250Z,84.58
2022-11-06T05:21:51.281Z,84.39
2022-11-06T05:24:17.922Z,83.18
2022-11-06T05:26:44.647Z,82.39
2022-11-06T05:29:12.285Z,83.49
2022-11-06T05:31:38.894Z,82.57
2022-11-06T05:34:06.093Z,81.88
2022-11-06T05:36:33.029Z,82.44
2022-11-06T05:38:59.599Z,82.63
2022-11-06T05:41:26.444Z,83.83
2022-11-06T05:43:53.186Z,83.19
2022-11-06T05:46:42.701Z,86.30
2022-11-06T05:49:06.625Z,84.21
2022-11-06T05:51:33.147Z,83.66
2022-11-06T05:53:59.781Z,83.18
2022-11-06T05:56:26.363Z,82.28
2022-11-06T05:58:53.014Z,82.66
2022-11-06T06:01:19.681Z,82.12
2022-11-06T06:03:46.373Z,82.38
2022-11-06T06:06:12.887Z,82.71
2022-11-06T06:08:39.456Z,82.53
2022-11-06T06:11:09.835Z,81.79
2022-11-06T06:13:39.693Z,81.66
2022-11-06T06:16:07.051Z,81.33
2022-11-06T06:18:33.699Z,81.26
2022-11-06T06:21:00.298Z,82.39
2022-11-06T06:23:27.102Z,82.34
2022-11-06T06:25:53.677Z,83.03
2022-11-06T06:28:20.206Z,82.87
2022-11-06T06:30:46.765Z,83.73
2022-11-06T06:33:13.341Z,84.41
2022-11-06T06:35:39.860Z,85.53
2022-11-06T06:38:06.474Z,86.80
2022-11-06T06:40:33.251Z,86.68
2022-11-06T06:42:59.795Z,86.65
2022-11-06T06:45:26.516Z,87.35
2022-11-06T06:47:53.265Z,87.55
2022-11-06T06:50:19.937Z,86.91
2022-11-06T06:52:47.328Z,87.18
2022-11-06T06:55:14.195Z,87.86
2022-11-06T06:57:40.787Z,87.82
2022-11-06T07:00:08.237Z,86.33
2022-11-06T07:02:34.925Z,86.76
2022-11-06T07:05:01.544Z,88.58
2022-11-06T07:07:28.141Z,88.19
2022-11-06T07:09:54.671Z,88.07
2022-11-06T07:12:21.402Z,88.45
2022-11-06T07:14:47.984Z,89.11
2022-11-06T07:17:14.574Z,89.39
2022-11-06T07:19:41.118Z,90.73
2022-11-06T07:22:07.782Z,92.41
2022-11-06T07:24:34.310Z,92.95
2022-11-06T07:27:00.847Z,93.91
2022-11-06T07:29:27.511Z,95.71
2022-11-06T07:31:54.101Z,94.54
2022-11-06T07:34:20.659Z,96.44
2022-11-06T07:36:47.364Z,95.54
2022-11-06T07:39:13.985Z,96.07
2022-11-06T07:41:40.621Z,96.88
2022-11-06T07:44:07.175Z,97.19
2022-11-06T07:46:33.710Z,97.58
2022-11-06T07:49:00.314Z,99.02
2022-11-06T07:51:26.860Z,99.34
2022-11-06T07:53:53.557Z,99.89
2022-11-06T07:56:20.086Z,99.92
2022-11-06T07:58:46.652Z,100.00
2022-11-06T08:01:18.904Z,99.94
2022-11-06T08:03:45.987Z,99.01
2022-11-06T08:06:12.544Z,98.72
2022-11-06T08:08:39.421Z,99.29
2022-11-06T08:11:08.302Z,100.00
2022-11-06T08:13:35.407Z,99.78
2022-11-06T08:16:13.640Z,100.00
2022-11-06T08:18:41.224Z,100.00
2022-11-06T08:21:08.246Z,99.29
2022-11-06T08:23:36.019Z,98.87
2022-11-06T08:26:05.916Z,99.37
2022-11-06T08:28:32.621Z,99.12
2022-11-06T08:31:04.193Z,99.25
2022-11-06T08:33:30.738Z,98.03
2022-11-06T08:36:00.562Z,97.87
2022-11-06T08:38:27.231Z,98.59
2022-11-06T08:40:54.101Z,98.02
2022-11-06T08:43:24.100Z,97.52
2022-11-06T08:45:50.691Z,98.00
2022-11-06T08:48:17.253Z,97.29
2022-11-06T08:50:43.852Z,95.67
2022-11-06T08:53:10.834Z,94.44
2022-11-06T08:55:38.978Z,94.20
2022-11-06T08:58:07.291Z,92.26
2022-11-06T09:00:34.249Z,92.83
2022-11-06T09:03:13.471Z,93.71
2022-11-06T09:05:44.141Z,93.55
2022-11-06T09:08:11.745Z,93.14
2022-11-06T09:10:39.730Z,92.50
2022-11-06T09:13:06.893Z,92.44
2022-11-06T09:15:33.859Z,92.67
2022-11-06T09:18:00.687Z,92.94
2022-11-06T09:20:27.787Z,92.61
2022-11-06T09:22:55.067Z,92.56
2022-11-06T09:25:21.927Z,93.45
2022-11-06T09:27:58.742Z,92.19
2022-11-06T09:30:28.267Z,90.69
2022-11-06T09:32:57.532Z,91.32
2022-11-06T09:35:25.846Z,91.36
2022-11-06T09:37:52.723Z,92.83
2022-11-06T09:40:29.832Z,92.61
2022-11-06T09:43:50.320Z,91.58
2022-11-06T09:46:22.897Z,90.94
2022-11-06T09:49:12.617Z,91.89
2022-11-06T09:51:47.436Z,92.79
2022-11-06T09:54:26.021Z,92.90
2022-11-06T09:56:57.886Z,93.11
2022-11-06T09:59:25.627Z,92.73
2022-11-06T10:01:55.962Z,93.17
2022-11-06T10:04:34.790Z,92.44
2022-11-06T10:07:01.588Z,92.47
2022-11-06T10:09:29.171Z,93.16
2022-11-06T10:12:16.994Z,93.36
2022-11-06T10:14:59.642Z,93.30
2022-11-06T10:17:48.229Z,92.97
2022-11-06T10:20:26.760Z,92.17
2022-11-06T10:23:11.043Z,91.98
2022-11-06T10:25:44.825Z,92.78
2022-11-06T10:28:17.422Z,93.44
2022-11-06T10:30:53.788Z,93.63
2022-11-06T10:33:26.269Z,94.26
2022-11-06T10:36:06.212Z,93.50
2022-11-06T10:38:39.144Z,93.33
2022-11-06T10:41:14.491Z,94.07
2022-11-06T10:43:58.822Z,93.98
2022-11-06T10:46:33.999Z,93.34
2022-11-06T10:49:03.991Z,92.25
2022-11-06T10:51:57.585Z,93.42
2022-11-06T10:54:32.604Z,91.59
2022-11-06T10:57:32.735Z,91.08
2022-11-06T10:59:59.409Z,91.77
2022-11-06T11:02:35.792Z,90.66
2022-11-06T11:05:02.799Z,90.55
2022-11-06T11:07:32.449Z,90.54
2022-11-06T11:09:59.101Z,90.15
2022-11-06T11:12:31.214Z,90.07
2022-11-06T11:15:05.273Z,87.85
2022-11-06T11:17:31.977Z,88.24
2022-11-06T11:19:59.506Z,90.63
2022-11-06T11:22:31.913Z,90.29
2022-11-06T11:25:04.827Z,90.13
2022-11-06T11:27:44.484Z,91.59
2022-11-06T11:30:23.605Z,90.89
2022-11-06T11:32:52.558Z,90.41
2022-11-06T11:35:28.378Z,89.60
2022-11-06T11:38:13.584Z,90.04
2022-11-06T11:40:41.563Z,88.71
2022-11-06T11:43:30.439Z,87.96
2022-11-06T11:46:09.263Z,89.04
2022-11-06T11:48:58.307Z,88.19
2022-11-06T11:51:35.781Z,87.75
2022-11-06T11:54:25.668Z,87.79
2022-11-06T11:57:05.158Z,87.95
2022-11-06T11:59:44.853Z,88.24
2022-11-06T12:02:36.752Z,90.56
2022-11-06T12:05:10.804Z,89.72
2022-11-06T12:07:45.964Z,89.56
2022-11-06T12:10:36.717Z,88.96
2022-11-06T12:13:07.256Z,90.88
2022-11-06T12:15:54.354Z,92.18
2022-11-06T12:18:27.160Z,91.14
2022-11-06T12:21:03.424Z,90.12
2022-11-06T12:23:32.955Z,89.24
2022-11-06T12:26:07.781Z,88.01
2022-11-06T12:28:37.950Z,87.41
2022-11-06T12:31:14.701Z,87.15
2022-11-06T12:34:05.634Z,89.67
2022-11-06T12:36:37.007Z,89.93
2022-11-06T12:39:11.965Z,91.11
2022-11-06T12:41:44.487Z,89.78
2022-11-06T12:44:14.849Z,90.44
2022-11-06T12:47:04.978Z,90.31
2022-11-06T12:50:08.166Z,90.26
2022-11-06T12:52:55.967Z,89.97
2022-11-06T12:55:36.878Z,91.41
2022-11-06T12:58:36.318Z,93.71
2022-11-06T13:01:18.139Z,94.29
2022-11-06T13:04:17.951Z,93.36
2022-11-06T13:07:10.467Z,91.64
2022-11-06T13:09:54.420Z,93.39
2022-11-06T13:12:27.553Z,94.22
2022-11-06T13:15:24.479Z,96.69
2022-11-06T13:17:59.752Z,96.28
2022-11-06T13:20:49.389Z,97.01
2022-11-06T13:23:39.477Z,96.33
2022-11-06T13:26:12.150Z,96.82
2022-11-06T13:28:44.959Z,95.60
2022-11-06T13:31:14.811Z,94.62
2022-11-06T13:33:49.974Z,93.06
2022-11-06T13:36:18.506Z,93.88
2022-11-06T13:38:49.753Z,93.59
2022-11-06T13:41:32.351Z,94.66
2022-11-06T13:44:02.471Z,93.38
2022-11-06T13:46:34.783Z,94.71
2022-11-06T13:49:29.344Z,95.02
2022-11-06T13:52:18.362Z,95.14
2022-11-06T13:55:04.744Z,95.24
2022-11-06T13:57:43.674Z,95.55
2022-11-06T14:00:23.348Z,94.66
2022-11-06T14:02:56.583Z,94.45
2022-11-06T14:05:59.661Z,93.49
2022-11-06T14:08:32.090Z,92.31
2022-11-06T14:11:03.997Z,91.52
2022-11-06T14:13:35.838Z,91.22
2022-11-06T14:16:27.134Z,91.96
2022-11-06T14:18:57.054Z,92.60
2022-11-06T14:21:28.656Z,91.66
2022-11-06T14:24:05.780Z,92.03
2022-11-06T14:26:51.487Z,92.47
2022-11-06T14:29:27.469Z,91.51
2022-11-06T14:32:18.477Z,91.39
2022-11-06T14:34:45.520Z,92.37
2022-11-06T14:37:21.012Z,93.53
2022-11-06T14:39:56.483Z,93.78
2022-11-06T14:42:26.871Z,93.50
2022-11-06T14:44:57.228Z,92.65
2022-11-06T14:47:34.705Z,92.35
2022-11-06T14:50:19.147Z,92.37
2022-11-06T14:52:56.991Z,90.72
2022-11-06T14:55:31.290Z,92.92
2022-11-06T14:58:23.140Z,91.06
2022-11-06T15:01:05.222Z,90.52
2022-11-06T15:03:36.013Z,92.49
2022-11-06T15:06:21.810Z,91.22
2022-11-06T15:08:48.456Z,91.62
2022-11-06T15:11:30.676Z,92.11
2022-11-06T15:14:03.409Z,90.59
2022-11-06T15:16:40.469Z,90.17
2022-11-06T15:19:14.257Z,89.66
2022-11-06T15:22:06.854Z,89.96
2022-11-06T15:24:40.173Z,91.01
2022-11-06T15:27:18.064Z,92.73
2022-11-06T15:29:48.043Z,91.73
2022-11-06T15:32:29.176Z,92.17
2022-11-06T15:35:02.359Z,91.84
2022-11-06T15:37:55.775Z,90.57
2022-11-06T15:40:38.163Z,91.35
2022-11-06T15:43:26.314Z,91.04
2022-11-06T15:46:06.795Z,89.11
2022-11-06T15:48:34.208Z,89.42
2022-11-06T15:51:00.931Z,89.44
2022-11-06T15:53:28.961Z,89.84
2022-11-06T15:56:03.207Z,91.18
2022-11-06T15:58:35.939Z,90.63
2022-11-06T16:01:05.283Z,89.69
2022-11-06T16:03:44.734Z,89.60
2022-11-06T16:06:11.631Z,88.64
2022-11-06T16:08:39.033Z,88.55
2022-11-06T16:11:13.334Z,88.44
2022-11-06T16:13:41.383Z,88.53
2022-11-06T16:16:38.481Z,88.78
2022-11-06T16:19:16.829Z,88.16
2022-11-06T16:21:52.832Z,88.42
2022-11-06T16:24:19.490Z,87.60
2022-11-06T16:26:52.492Z,87.83
2022-11-06T16:29:30.604Z,88.08
2022-11-06T16:32:02.477Z,86.64
2022-11-06T16:34:32.031Z,87.96
2022-11-06T16:37:03.571Z,86.86
2022-11-06T16:39:47.851Z,85.84
2022-11-06T16:52:53.292Z,88.12
2022-11-06T16:55:28.246Z,86.75
2022-11-06T16:58:00.766Z,85.82
2022-11-06T17:00:31.187Z,84.87
2022-11-06T17:03:18.225Z,84.45
2022-11-06T17:05:53.344Z,85.25
2022-11-06T17:08:26.593Z,86.88
2022-11-06T17:10:58.161Z,87.27
2022-11-06T17:13:49.627Z,85.88
2022-11-06T17:16:22.681Z,86.44
2022-11-06T17:18:49.811Z,85.04
2022-11-06T17:21:27.488Z,84.57
2022-11-06T17:24:00.240Z,83.63
2022-11-06T17:26:32.705Z,83.35
2022-11-06T17:29:00.314Z,83.98
2022-11-06T17:31:27.338Z,83.60
2022-11-06T17:33:54.322Z,83.44
2022-11-06T17:36:26.905Z,84.40
2022-11-06T17:38:55.136Z,84.57
2022-11-06T17:41:31.145Z,84.47
2022-11-06T17:43:57.920Z,83.97
2022-11-06T17:46:33.591Z,82.80
2022-11-06T17:49:00.770Z,82.13
2022-11-06T17:51:46.034Z,82.01
2022-11-06T17:54:13.468Z,81.58
2022-11-06T17:56:40.407Z,81.81
2022-11-06T17:59:09.007Z,81.35
2022-11-06T18:01:35.884Z,81.49
2022-11-06T18:04:02.818Z,81.35
2022-11-06T18:06:29.554Z,81.02
2022-11-06T18:09:01.775Z,81.33
2022-11-06T18:11:29.083Z,81.45
2022-11-06T18:13:56.272Z,81.87
2022-11-06T18:16:29.226Z,81.70
2022-11-06T18:18:57.412Z,81.36
2022-11-06T18:21:25.117Z,81.01
2022-11-06T18:23:52.062Z,81.31
2022-11-06T18:26:23.047Z,81.09
2022-11-06T18:28:50.642Z,81.31
2022-11-06T18:31:18.251Z,81.54
2022-11-06T18:33:47.538Z,82.06
2022-11-06T18:36:15.973Z,82.07
2022-11-06T18:38:44.338Z,81.89
2022-11-06T18:41:14.076Z,81.49
2022-11-06T18:43:41.168Z,81.12
2022-11-06T18:46:13.292Z,80.88
2022-11-06T18:48:44.449Z,80.76
2022-11-06T18:51:32.362Z,80.40
2022-11-06T18:54:01.893Z,79.81
2022-11-06T18:56:28.610Z,79.89
2022-11-06T18:58:55.408Z,79.94
2022-11-06T19:01:26.039Z,79.60
2022-11-06T19:03:53.165Z,81.46
2022-11-06T19:06:21.063Z,80.93
2022-11-06T19:08:50.009Z,82.04
2022-11-06T19:11:18.579Z,81.79
2022-11-06T19:13:48.325Z,81.78
2022-11-06T19:16:21.019Z,82.37
2022-11-06T19:21:32.286Z,83.84
2022-11-06T19:24:05.166Z,83.27
2022-11-06T19:26:34.776Z,81.63
2022-11-06T19:29:01.451Z,81.75
2022-11-06T19:31:29.804Z,81.36
2022-11-06T19:33:58.736Z,80.64
2022-11-06T19:36:25.570Z,79.88
2022-11-06T19:38:52.522Z,80.18
2022-11-06T19:41:19.624Z,79.80
2022-11-06T19:43:46.202Z,80.28
2022-11-06T19:46:12.788Z,79.94
2022-11-06T19:48:39.537Z,80.43
2022-11-06T19:51:10.519Z,80.63
2022-11-06T19:53:37.395Z,80.44
2022-11-06T19:56:05.581Z,80.31
2022-11-06T19:58:32.634Z,80.25
2022-11-06T20:00:59.411Z,80.36
2022-11-06T20:03:26.324Z,81.22
2022-11-06T20:05:54.103Z,81.59
2022-11-06T20:08:20.749Z,81.94
2022-11-06T20:10:47.304Z,81.44
2022-11-06T20:13:14.266Z,80.87
2022-11-06T20:15:41.028Z,80.80
2022-11-06T20:18:09.919Z,80.55
2022-11-06T20:20:37.091Z,80.24
2022-11-06T20:23:06.875Z,79.90
2022-11-06T20:25:33.597Z,80.25
2022-11-06T20:28:00.168Z,81.12
2022-11-06T20:30:30.608Z,81.41
2022-11-06T20:32:57.251Z,80.18
2022-11-06T20:35:23.853Z,79.80
2022-11-06T20:37:50.516Z,79.55
2022-11-06T20:40:17.184Z,79.90
2022-11-06T20:42:43.832Z,79.90
2022-11-06T20:45:10.444Z,79.36
2022-11-06T20:47:37.103Z,79.39
2022-11-06T20:50:03.922Z,78.65
2022-11-06T20:52:30.660Z,78.26
2022-11-06T20:54:57.438Z,79.02
2022-11-06T20:57:24.045Z,78.54
2022-11-06T20:59:50.543Z,79.46
2022-11-06T21:02:17.328Z,79.12
2022-11-06T21:04:44.149Z,78.64
2022-11-06T21:07:10.695Z,78.61
2022-11-06T21:09:37.391Z,78.20
2022-11-06T21:12:04.205Z,78.52
2022-11-06T21:14:30.865Z,78.02
2022-11-06T21:16:57.458Z,78.20
2022-11-06T21:19:24.314Z,77.98
2022-11-06T21:21:51.231Z,78.24
2022-11-06T21:24:17.971Z,78.22
2022-11-06T21:26:44.681Z,78.32
2022-11-06T21:29:11.817Z,77.97
2022-11-06T21:31:45.651Z,77.99
2022-11-06T21:34:15.338Z,78.21
2022-11-06T21:36:42.206Z,78.30
2022-11-06T21:39:12.706Z,78.39
2022-11-06T21:41:39.766Z,78.53
2022-11-06T21:44:07.631Z,78.22
2022-11-06T21:46:34.573Z,78.21
2022-11-06T21:49:01.143Z,77.94
2022-11-06T21:51:30.266Z,77.83
2022-11-06T21:54:15.519Z,77.94
2022-11-06T21:56:42.828Z,77.96
2022-11-06T21:59:12.575Z,77.76
2022-11-06T22:01:40.072Z,77.92
2022-11-06T22:04:07.354Z,77.72
2022-11-06T22:06:34.296Z,77.90
2022-11-06T22:09:02.751Z,78.25
2022-11-06T22:11:32.373Z,78.21
2022-11-06T22:14:02.626Z,78.15
2022-11-06T22:16:32.532Z,78.29
2022-11-06T22:18:59.682Z,78.19
2022-11-06T22:21:28.245Z,78.24
2022-11-06T22:23:55.526Z,78.55
2022-11-06T22:26:24.143Z,78.43
2022-11-06T22:29:02.201Z,78.42
2022-11-06T22:31:29.540Z,78.63
2022-11-06T22:33:57.036Z,78.63
2022-11-06T22:36:24.584Z,78.52
2022-11-06T22:38:51.933Z,78.76
2022-11-06T22:41:21.211Z,78.79
2022-11-06T22:43:47.951Z,78.88
2022-11-06T22:46:18.195Z,78.79
2022-11-06T22:48:45.360Z,79.15
2022-11-06T22:51:33.516Z,78.93
2022-11-06T22:54:01.076Z,79.17
2022-11-06T22:56:29.271Z,79.01
2022-11-06T22:58:58.086Z,78.80
2022-11-06T23:01:27.036Z,78.54
2022-11-06T23:03:57.765Z,78.33
2022-11-06T23:06:26.024Z,78.32
2022-11-06T23:08:53.155Z,77.93
2022-11-06T23:11:21.067Z,78.16
2022-11-06T23:13:47.708Z,78.39
2022-11-06T23:16:17.884Z,78.14
2022-11-06T23:18:45.038Z,77.67
2022-11-06T23:21:12.512Z,77.61
2022-11-06T23:23:39.201Z,77.59
2022-11-06T23:26:17.341Z,76.99
2022-11-06T23:28:45.301Z,77.14
2022-11-06T23:31:13.933Z,77.17
2022-11-06T23:33:41.041Z,76.76
2022-11-06T23:36:09.549Z,76.51
2022-11-06T23:38:36.752Z,75.88
2022-11-06T23:41:29.187Z,75.64
2022-11-06T23:43:56.933Z,75.58
2022-11-06T23:46:26.442Z,75.46
2022-11-06T23:48:53.223Z,75.21
2022-11-06T23:51:20.091Z,75.22
2022-11-06T23:53:46.643Z,74.84
2022-11-06T23:56:13.873Z,75.03
2022-11-06T23:58:41.131Z,74.98
